sensor_id;sensor_type;location;lat;lon;timestamp;pressure;altitude;pressure_sealevel;temperature;humidity
76195;BME280;64964;48.694;21.206;2023-09-07T00:00:20;98763.53;;;18.01;55.47
76195;BME280;64964;48.694;21.206;2023-09-07T00:02:46;98757.59;;;17.99;55.61
76195;BME280;64964;48.694;21.206;2023-09-07T00:05:11;98761.28;;;17.98;55.66
76195;BME280;64964;48.694;21.206;2023-09-07T00:07:38;98756.13;;;17.96;55.30
76195;BME280;64964;48.694;21.206;2023-09-07T00:10:04;98733.84;;;17.82;55.64
76195;BME280;64964;48.694;21.206;2023-09-07T00:12:30;98756.50;;;17.93;55.73
76195;BME280;64964;48.694;21.206;2023-09-07T00:14:55;98756.94;;;17.90;55.88
76195;BME280;64964;48.694;21.206;2023-09-07T00:17:22;98760.59;;;17.89;55.74
76195;BME280;64964;48.694;21.206;2023-09-07T00:19:48;98754.03;;;17.85;55.84
76195;BME280;64964;48.694;21.206;2023-09-07T00:22:17;98750.09;;;17.87;55.89
76195;BME280;64964;48.694;21.206;2023-09-07T00:24:44;98755.66;;;17.86;55.98
76195;BME280;64964;48.694;21.206;2023-09-07T00:27:10;98751.34;;;17.85;55.91
76195;BME280;64964;48.694;21.206;2023-09-07T00:29:37;98744.31;;;17.84;56.01
76195;BME280;64964;48.694;21.206;2023-09-07T00:32:02;98748.41;;;17.80;56.02
76195;BME280;64964;48.694;21.206;2023-09-07T00:34:28;98746.38;;;17.82;56.10
76195;BME280;64964;48.694;21.206;2023-09-07T00:36:53;98743.06;;;17.80;55.98
76195;BME280;64964;48.694;21.206;2023-09-07T00:39:19;98743.88;;;17.80;56.25
76195;BME280;64964;48.694;21.206;2023-09-07T00:41:44;98752.13;;;17.79;56.29
76195;BME280;64964;48.694;21.206;2023-09-07T00:44:09;98745.13;;;17.78;56.13
76195;BME280;64964;48.694;21.206;2023-09-07T00:46:35;98746.34;;;17.75;56.44
76195;BME280;64964;48.694;21.206;2023-09-07T00:49:01;98743.41;;;17.70;56.25
76195;BME280;64964;48.694;21.206;2023-09-07T00:51:27;98738.88;;;17.71;56.14
76195;BME280;64964;48.694;21.206;2023-09-07T00:53:54;98740.53;;;17.72;56.35
76195;BME280;64964;48.694;21.206;2023-09-07T00:56:19;98739.69;;;17.71;56.51
76195;BME280;64964;48.694;21.206;2023-09-07T00:58:45;98739.69;;;17.71;56.47
76195;BME280;64964;48.694;21.206;2023-09-07T01:01:10;98737.22;;;17.70;56.49
76195;BME280;64964;48.694;21.206;2023-09-07T01:03:35;98738.44;;;17.67;56.62
76195;BME280;64964;48.694;21.206;2023-09-07T01:06:12;98732.81;;;17.55;57.13
76195;BME280;64964;48.694;21.206;2023-09-07T01:08:44;98715.28;;;17.46;57.00
76195;BME280;64964;48.694;21.206;2023-09-07T01:11:14;98738.59;;;17.59;57.08
76195;BME280;64964;48.694;21.206;2023-09-07T01:13:40;98744.34;;;17.56;56.78
76195;BME280;64964;48.694;21.206;2023-09-07T01:16:06;98737.75;;;17.52;56.94
76195;BME280;64964;48.694;21.206;2023-09-07T01:18:32;98743.50;;;17.55;56.83
76195;BME280;64964;48.694;21.206;2023-09-07T01:20:59;98732.81;;;17.55;57.04
76195;BME280;64964;48.694;21.206;2023-09-07T01:23:25;98738.16;;;17.55;57.05
76195;BME280;64964;48.694;21.206;2023-09-07T01:25:51;98739.81;;;17.56;56.82
76195;BME280;64964;48.694;21.206;2023-09-07T01:28:18;98744.53;;;17.54;57.10
76195;BME280;64964;48.694;21.206;2023-09-07T01:30:45;98739.56;;;17.51;57.00
76195;BME280;64964;48.694;21.206;2023-09-07T01:33:10;98737.09;;;17.50;57.15
76195;BME280;64964;48.694;21.206;2023-09-07T01:35:36;98747.19;;;17.48;57.30
76195;BME280;64964;48.694;21.206;2023-09-07T01:38:02;98750.66;;;17.48;57.14
76195;BME280;64964;48.694;21.206;2023-09-07T01:40:28;98743.84;;;17.46;57.27
76195;BME280;64964;48.694;21.206;2023-09-07T01:42:53;98743.03;;;17.45;57.12
76195;BME280;64964;48.694;21.206;2023-09-07T01:45:19;98733.69;;;17.34;57.20
76195;BME280;64964;48.694;21.206;2023-09-07T01:47:44;98741.97;;;17.39;57.22
76195;BME280;64964;48.694;21.206;2023-09-07T01:50:10;98748.16;;;17.40;57.37
76195;BME280;64964;48.694;21.206;2023-09-07T01:52:35;98742.97;;;17.38;57.35
76195;BME280;64964;48.694;21.206;2023-09-07T01:55:01;98744.22;;;17.36;57.30
76195;BME280;64964;48.694;21.206;2023-09-07T01:57:26;98742.75;;;17.33;57.17
76195;BME280;64964;48.694;21.206;2023-09-07T01:59:51;98743.53;;;17.27;57.35
76195;BME280;64964;48.694;21.206;2023-09-07T02:02:17;98751.13;;;17.30;57.49
76195;BME280;64964;48.694;21.206;2023-09-07T02:04:42;98750.53;;;17.28;57.43
76195;BME280;64964;48.694;21.206;2023-09-07T02:07:11;98750.91;;;17.25;57.47
76195;BME280;64964;48.694;21.206;2023-09-07T02:09:36;98748.44;;;17.24;57.77
76195;BME280;64964;48.694;21.206;2023-09-07T02:12:02;98754.34;;;17.19;57.88
76195;BME280;64964;48.694;21.206;2023-09-07T02:14:29;98761.56;;;17.18;57.78
76195;BME280;64964;48.694;21.206;2023-09-07T02:16:54;98747.91;;;17.13;57.78
76195;BME280;64964;48.694;21.206;2023-09-07T02:19:19;98740.50;;;17.09;57.66
76195;BME280;64964;48.694;21.206;2023-09-07T02:21:47;98746.94;;;17.14;57.93
76195;BME280;64964;48.694;21.206;2023-09-07T02:24:13;98742.34;;;17.08;57.98
76195;BME280;64964;48.694;21.206;2023-09-07T02:26:38;98751.81;;;17.11;57.80
76195;BME280;64964;48.694;21.206;2023-09-07T02:29:08;98745.44;;;17.12;57.96
76195;BME280;64964;48.694;21.206;2023-09-07T02:31:34;98748.94;;;17.12;57.54
76195;BME280;64964;48.694;21.206;2023-09-07T02:33:59;98737.38;;;17.05;57.64
76195;BME280;64964;48.694;21.206;2023-09-07T02:36:24;98753.47;;;17.12;57.74
76195;BME280;64964;48.694;21.206;2023-09-07T02:38:50;98757.16;;;17.11;57.66
76195;BME280;64964;48.694;21.206;2023-09-07T02:41:15;98753.03;;;17.08;57.84
76195;BME280;64964;48.694;21.206;2023-09-07T02:43:41;98748.72;;;17.07;57.60
76195;BME280;64964;48.694;21.206;2023-09-07T02:46:06;98752.41;;;17.06;57.53
76195;BME280;64964;48.694;21.206;2023-09-07T02:48:32;98751.75;;;17.04;57.20
76195;BME280;64964;48.694;21.206;2023-09-07T02:50:57;98757.53;;;17.08;57.46
76195;BME280;64964;48.694;21.206;2023-09-07T02:53:24;98758.38;;;17.08;57.75
76195;BME280;64964;48.694;21.206;2023-09-07T02:55:49;98748.47;;;17.02;57.92
76195;BME280;64964;48.694;21.206;2023-09-07T02:58:15;98757.75;;;17.06;57.76
76195;BME280;64964;48.694;21.206;2023-09-07T03:00:44;98760.78;;;17.03;57.80
76195;BME280;64964;48.694;21.206;2023-09-07T03:03:10;98762.06;;;17.07;57.52
76195;BME280;64964;48.694;21.206;2023-09-07T03:05:38;98762.44;;;17.04;57.48
76195;BME280;64964;48.694;21.206;2023-09-07T03:08:03;98755.00;;;17.00;57.72
76195;BME280;64964;48.694;21.206;2023-09-07T03:10:29;98759.78;;;17.04;57.61
76195;BME280;64964;48.694;21.206;2023-09-07T03:12:54;98758.94;;;17.04;57.57
76195;BME280;64964;48.694;21.206;2023-09-07T03:15:20;98765.13;;;17.04;57.81
76195;BME280;64964;48.694;21.206;2023-09-07T03:17:45;98769.63;;;17.04;57.85
76195;BME280;64964;48.694;21.206;2023-09-07T03:20:11;98752.72;;;16.97;57.56
76195;BME280;64964;48.694;21.206;2023-09-07T03:22:43;98763.41;;;16.97;58.26
76195;BME280;64964;48.694;21.206;2023-09-07T03:25:10;98765.50;;;17.01;57.95
76195;BME280;64964;48.694;21.206;2023-09-07T03:27:39;98759.53;;;16.99;57.79
76195;BME280;64964;48.694;21.206;2023-09-07T03:30:05;98765.50;;;17.01;57.67
76195;BME280;64964;48.694;21.206;2023-09-07T03:32:34;98762.56;;;16.96;57.67
76195;BME280;64964;48.694;21.206;2023-09-07T03:35:00;98768.56;;;16.98;57.53
76195;BME280;64964;48.694;21.206;2023-09-07T03:37:26;98766.84;;;16.90;57.81
76195;BME280;64964;48.694;21.206;2023-09-07T03:39:52;98766.91;;;16.97;57.96
76195;BME280;64964;48.694;21.206;2023-09-07T03:42:18;98771.63;;;16.95;58.15
76195;BME280;64964;48.694;21.206;2023-09-07T03:44:43;98770.78;;;16.95;57.95
76195;BME280;64964;48.694;21.206;2023-09-07T03:47:09;98766.47;;;16.93;57.97
76195;BME280;64964;48.694;21.206;2023-09-07T03:49:35;98767.47;;;16.92;57.75
76195;BME280;64964;48.694;21.206;2023-09-07T03:52:00;98759.03;;;16.89;57.83
76195;BME280;64964;48.694;21.206;2023-09-07T03:54:26;98763.34;;;16.90;58.13
76195;BME280;64964;48.694;21.206;2023-09-07T03:56:51;98764.78;;;16.92;58.12
76195;BME280;64964;48.694;21.206;2023-09-07T03:59:16;98767.88;;;16.89;57.88
76195;BME280;64964;48.694;21.206;2023-09-07T04:01:42;98774.66;;;16.92;58.14
76195;BME280;64964;48.694;21.206;2023-09-07T04:04:07;98766.03;;;16.90;57.90
76195;BME280;64964;48.694;21.206;2023-09-07T04:06:33;98770.91;;;16.86;57.97
76195;BME280;64964;48.694;21.206;2023-09-07T04:08:58;98779.19;;;16.91;57.90
76195;BME280;64964;48.694;21.206;2023-09-07T04:11:23;98783.69;;;16.91;58.23
76195;BME280;64964;48.694;21.206;2023-09-07T04:13:49;98771.75;;;16.87;57.96
76195;BME280;64964;48.694;21.206;2023-09-07T04:16:14;98790.69;;;16.92;57.97
76195;BME280;64964;48.694;21.206;2023-09-07T04:18:39;98791.72;;;16.91;57.96
76195;BME280;64964;48.694;21.206;2023-09-07T04:21:08;98786.38;;;16.91;58.09
76195;BME280;64964;48.694;21.206;2023-09-07T04:23:33;98784.50;;;16.91;58.10
76195;BME280;64964;48.694;21.206;2023-09-07T04:26:09;98785.28;;;16.85;58.76
76195;BME280;64964;48.694;21.206;2023-09-07T04:28:34;98793.94;;;16.87;58.06
76195;BME280;64964;48.694;21.206;2023-09-07T04:31:01;98799.91;;;16.89;58.25
76195;BME280;64964;48.694;21.206;2023-09-07T04:33:26;98806.72;;;16.92;58.44
76195;BME280;64964;48.694;21.206;2023-09-07T04:35:54;98793.56;;;16.90;58.43
76195;BME280;64964;48.694;21.206;2023-09-07T04:38:19;98795.44;;;16.97;58.52
76195;BME280;64964;48.694;21.206;2023-09-07T04:40:45;98808.44;;;17.00;58.95
76195;BME280;64964;48.694;21.206;2023-09-07T04:43:10;98806.00;;;17.05;58.73
76195;BME280;64964;48.694;21.206;2023-09-07T04:45:35;98807.16;;;17.17;58.85
76195;BME280;64964;48.694;21.206;2023-09-07T04:48:01;98801.97;;;17.37;58.30
76195;BME280;64964;48.694;21.206;2023-09-07T04:50:26;98804.84;;;17.63;58.50
76195;BME280;64964;48.694;21.206;2023-09-07T04:52:52;98801.16;;;17.92;57.91
76195;BME280;64964;48.694;21.206;2023-09-07T04:55:17;98796.75;;;18.13;57.89
76195;BME280;64964;48.694;21.206;2023-09-07T04:57:43;98802.06;;;18.54;57.15
76195;BME280;64964;48.694;21.206;2023-09-07T05:00:08;98793.13;;;18.88;56.42
76195;BME280;64964;48.694;21.206;2023-09-07T05:02:34;98807.41;;;19.29;55.38
76195;BME280;64964;48.694;21.206;2023-09-07T05:05:05;98798.72;;;19.60;54.69
76195;BME280;64964;48.694;21.206;2023-09-07T05:07:31;98802.44;;;19.92;54.28
76195;BME280;64964;48.694;21.206;2023-09-07T05:09:56;98801.34;;;20.20;53.72
76195;BME280;64964;48.694;21.206;2023-09-07T05:12:21;98813.63;;;20.47;52.92
76195;BME280;64964;48.694;21.206;2023-09-07T05:14:47;98811.47;;;20.69;52.70
76195;BME280;64964;48.694;21.206;2023-09-07T05:17:12;98813.22;;;20.95;51.75
76195;BME280;64964;48.694;21.206;2023-09-07T05:19:37;98815.81;;;21.08;51.32
76195;BME280;64964;48.694;21.206;2023-09-07T05:22:03;98813.53;;;21.12;50.72
76195;BME280;64964;48.694;21.206;2023-09-07T05:24:28;98819.94;;;21.11;50.23
76195;BME280;64964;48.694;21.206;2023-09-07T05:26:54;98820.81;;;20.98;50.30
76195;BME280;64964;48.694;21.206;2023-09-07T05:29:19;98821.47;;;20.94;50.58
76195;BME280;64964;48.694;21.206;2023-09-07T05:31:46;98830.66;;;20.86;50.94
76195;BME280;64964;48.694;21.206;2023-09-07T05:34:12;98825.63;;;20.89;51.38
76195;BME280;64964;48.694;21.206;2023-09-07T05:36:37;98823.22;;;21.13;51.79
76195;BME280;64964;48.694;21.206;2023-09-07T05:39:03;98816.38;;;21.49;51.71
76195;BME280;64964;48.694;21.206;2023-09-07T05:41:29;98806.66;;;21.91;50.38
76195;BME280;64964;48.694;21.206;2023-09-07T05:43:55;98824.88;;;22.51;49.82
76195;BME280;64964;48.694;21.206;2023-09-07T05:46:20;98820.00;;;23.08;48.44
76195;BME280;64964;48.694;21.206;2023-09-07T05:48:45;98818.44;;;23.54;47.36
76195;BME280;64964;48.694;21.206;2023-09-07T05:51:11;98832.34;;;24.04;46.43
76195;BME280;64964;48.694;21.206;2023-09-07T05:53:38;98819.97;;;24.44;45.44
76195;BME280;64964;48.694;21.206;2023-09-07T05:56:04;98832.91;;;24.70;44.17
76195;BME280;64964;48.694;21.206;2023-09-07T05:58:29;98840.25;;;24.87;44.48
76195;BME280;64964;48.694;21.206;2023-09-07T06:00:54;98845.28;;;24.95;44.01
76195;BME280;64964;48.694;21.206;2023-09-07T06:03:20;98841.97;;;25.04;43.59
76195;BME280;64964;48.694;21.206;2023-09-07T06:05:45;98833.19;;;25.26;43.85
76195;BME280;64964;48.694;21.206;2023-09-07T06:08:11;98836.78;;;25.65;43.46
76195;BME280;64964;48.694;21.206;2023-09-07T06:10:36;98844.91;;;26.16;42.84
76195;BME280;64964;48.694;21.206;2023-09-07T06:13:01;98846.56;;;26.82;42.27
76195;BME280;64964;48.694;21.206;2023-09-07T06:15:27;98846.94;;;27.45;41.13
76195;BME280;64964;48.694;21.206;2023-09-07T06:17:53;98852.09;;;28.11;40.41
76195;BME280;64964;48.694;21.206;2023-09-07T06:20:19;98850.00;;;28.81;39.05
76195;BME280;64964;48.694;21.206;2023-09-07T06:22:45;98864.31;;;29.54;38.05
76195;BME280;64964;48.694;21.206;2023-09-07T06:25:11;98861.03;;;30.19;36.95
76195;BME280;64964;48.694;21.206;2023-09-07T06:27:36;98861.13;;;30.79;35.74
76195;BME280;64964;48.694;21.206;2023-09-07T06:30:02;98859.72;;;31.36;34.74
76195;BME280;64964;48.694;21.206;2023-09-07T06:32:28;98863.06;;;31.96;33.90
76195;BME280;64964;48.694;21.206;2023-09-07T06:34:53;98868.47;;;32.54;33.03
76195;BME280;64964;48.694;21.206;2023-09-07T06:37:18;98872.81;;;33.03;32.34
76195;BME280;64964;48.694;21.206;2023-09-07T06:39:44;98876.00;;;33.48;31.78
76195;BME280;64964;48.694;21.206;2023-09-07T06:42:09;98884.50;;;33.98;31.25
76195;BME280;64964;48.694;21.206;2023-09-07T06:44:37;98877.66;;;34.42;30.14
76195;BME280;64964;48.694;21.206;2023-09-07T06:47:03;98876.75;;;34.88;29.26
76195;BME280;64964;48.694;21.206;2023-09-07T06:49:28;98876.69;;;35.29;28.64
76195;BME280;64964;48.694;21.206;2023-09-07T06:51:55;98882.50;;;35.73;27.93
76195;BME280;64964;48.694;21.206;2023-09-07T06:54:21;98883.69;;;36.03;27.53
76195;BME280;64964;48.694;21.206;2023-09-07T06:56:46;98890.34;;;36.33;27.09
76195;BME280;64964;48.694;21.206;2023-09-07T06:59:11;98882.69;;;36.61;26.68
76195;BME280;64964;48.694;21.206;2023-09-07T07:01:37;98893.75;;;36.78;26.10
76195;BME280;64964;48.694;21.206;2023-09-07T07:04:02;98885.81;;;36.85;25.65
76195;BME280;64964;48.694;21.206;2023-09-07T07:06:28;98900.09;;;36.87;25.67
76195;BME280;64964;48.694;21.206;2023-09-07T07:08:53;98893.09;;;36.81;25.45
76195;BME280;64964;48.694;21.206;2023-09-07T07:11:19;98889.94;;;36.48;25.69
76195;BME280;64964;48.694;21.206;2023-09-07T07:13:44;98892.84;;;36.12;25.68
76195;BME280;64964;48.694;21.206;2023-09-07T07:16:10;98891.91;;;35.72;26.45
76195;BME280;64964;48.694;21.206;2023-09-07T07:18:35;98888.91;;;35.23;26.47
76195;BME280;64964;48.694;21.206;2023-09-07T07:21:00;98894.06;;;34.75;26.96
76195;BME280;64964;48.694;21.206;2023-09-07T07:23:26;98895.75;;;34.29;27.37
76195;BME280;64964;48.694;21.206;2023-09-07T07:25:51;98895.31;;;33.76;28.09
76195;BME280;64964;48.694;21.206;2023-09-07T07:28:17;98898.72;;;33.30;28.43
76195;BME280;64964;48.694;21.206;2023-09-07T07:30:42;98891.69;;;32.81;28.94
76195;BME280;64964;48.694;21.206;2023-09-07T07:33:08;98892.56;;;32.28;29.28
76195;BME280;64964;48.694;21.206;2023-09-07T07:35:34;98896.22;;;31.89;30.25
76195;BME280;64964;48.694;21.206;2023-09-07T07:38:00;98894.56;;;31.54;30.50
76195;BME280;64964;48.694;21.206;2023-09-07T07:40:26;98887.91;;;31.21;31.17
76195;BME280;64964;48.694;21.206;2023-09-07T07:42:52;98894.34;;;30.96;31.50
76195;BME280;64964;48.694;21.206;2023-09-07T07:45:18;98892.00;;;30.69;31.81
76195;BME280;64964;48.694;21.206;2023-09-07T07:47:45;98894.28;;;30.36;32.00
76195;BME280;64964;48.694;21.206;2023-09-07T07:50:10;98897.06;;;30.16;32.63
76195;BME280;64964;48.694;21.206;2023-09-07T07:52:36;98901.41;;;29.91;32.88
76195;BME280;64964;48.694;21.206;2023-09-07T07:55:02;98900.88;;;29.69;33.26
76195;BME280;64964;48.694;21.206;2023-09-07T07:57:27;98894.00;;;29.41;33.06
76195;BME280;64964;48.694;21.206;2023-09-07T07:59:55;98901.03;;;29.21;33.48
76195;BME280;64964;48.694;21.206;2023-09-07T08:02:20;98889.84;;;28.97;34.49
76195;BME280;64964;48.694;21.206;2023-09-07T08:04:45;98899.31;;;28.90;34.30
76195;BME280;64964;48.694;21.206;2023-09-07T08:07:11;98891.06;;;28.74;34.60
76195;BME280;64964;48.694;21.206;2023-09-07T08:09:36;98896.78;;;28.68;35.49
76195;BME280;64964;48.694;21.206;2023-09-07T08:12:03;98889.88;;;28.55;35.36
76195;BME280;64964;48.694;21.206;2023-09-07T08:14:29;98893.38;;;28.45;35.03
76195;BME280;64964;48.694;21.206;2023-09-07T08:16:55;98891.44;;;28.36;35.22
76195;BME280;64964;48.694;21.206;2023-09-07T08:19:20;98870.63;;;28.19;36.35
76195;BME280;64964;48.694;21.206;2023-09-07T08:21:46;98885.06;;;28.25;35.72
76195;BME280;64964;48.694;21.206;2023-09-07T08:24:12;98889.94;;;28.18;36.27
76195;BME280;64964;48.694;21.206;2023-09-07T08:26:37;98882.81;;;28.12;36.24
76195;BME280;64964;48.694;21.206;2023-09-07T08:29:03;98889.34;;;28.11;35.92
76195;BME280;64964;48.694;21.206;2023-09-07T08:31:32;98895.03;;;28.09;36.40
76195;BME280;64964;48.694;21.206;2023-09-07T08:34:04;98869.88;;;27.87;35.97
76195;BME280;64964;48.694;21.206;2023-09-07T08:36:30;98894.38;;;27.92;35.95
76195;BME280;64964;48.694;21.206;2023-09-07T08:38:59;98890.81;;;27.91;36.19
76195;BME280;64964;48.694;21.206;2023-09-07T08:41:31;98889.72;;;27.87;36.00
76195;BME280;64964;48.694;21.206;2023-09-07T08:43:57;98878.78;;;27.77;36.19
76195;BME280;64964;48.694;21.206;2023-09-07T08:46:23;98880.09;;;27.74;36.44
76195;BME280;64964;48.694;21.206;2023-09-07T08:48:49;98888.88;;;27.82;36.65
76195;BME280;64964;48.694;21.206;2023-09-07T08:51:16;98886.66;;;27.78;36.85
76195;BME280;64964;48.694;21.206;2023-09-07T08:53:42;98883.94;;;27.78;36.34
76195;BME280;64964;48.694;21.206;2023-09-07T08:56:12;98889.66;;;27.77;36.83
76195;BME280;64964;48.694;21.206;2023-09-07T08:58:37;98888.28;;;27.79;37.13
76195;BME280;64964;48.694;21.206;2023-09-07T09:01:03;98884.22;;;27.77;37.37
76195;BME280;64964;48.694;21.206;2023-09-07T09:03:29;98886.47;;;27.90;36.91
76195;BME280;64964;48.694;21.206;2023-09-07T09:05:56;98891.66;;;27.92;36.75
76195;BME280;64964;48.694;21.206;2023-09-07T09:08:22;98889.47;;;27.89;36.42
76195;BME280;64964;48.694;21.206;2023-09-07T09:10:58;98883.69;;;27.80;36.78
76195;BME280;64964;48.694;21.206;2023-09-07T09:13:32;98888.56;;;27.78;37.10
76195;BME280;64964;48.694;21.206;2023-09-07T09:16:01;98888.00;;;27.76;37.31
76195;BME280;64964;48.694;21.206;2023-09-07T09:18:27;98879.59;;;27.77;37.65
76195;BME280;64964;48.694;21.206;2023-09-07T09:20:54;98876.56;;;27.74;37.80
76195;BME280;64964;48.694;21.206;2023-09-07T09:23:20;98875.56;;;27.85;37.39
76195;BME280;64964;48.694;21.206;2023-09-07T09:25:47;98879.66;;;27.88;37.72
76195;BME280;64964;48.694;21.206;2023-09-07T09:28:13;98876.72;;;27.94;37.07
76195;BME280;64964;48.694;21.206;2023-09-07T09:30:38;98878.34;;;27.95;37.34
76195;BME280;64964;48.694;21.206;2023-09-07T09:33:05;98871.28;;;27.94;37.21
76195;BME280;64964;48.694;21.206;2023-09-07T09:35:31;98881.69;;;28.02;37.63
76195;BME280;64964;48.694;21.206;2023-09-07T09:38:01;98863.41;;;27.93;37.58
76195;BME280;64964;48.694;21.206;2023-09-07T09:40:33;98883.91;;;28.11;37.71
76195;BME280;64964;48.694;21.206;2023-09-07T09:43:03;98876.28;;;28.13;37.68
76195;BME280;64964;48.694;21.206;2023-09-07T09:45:29;98880.66;;;28.14;37.64
76195;BME280;64964;48.694;21.206;2023-09-07T09:47:55;98869.53;;;28.15;37.14
76195;BME280;64964;48.694;21.206;2023-09-07T09:50:25;98877.41;;;28.17;38.53
76195;BME280;64964;48.694;21.206;2023-09-07T09:52:52;98856.72;;;28.11;37.29
76195;BME280;64964;48.694;21.206;2023-09-07T09:55:18;98870.94;;;28.23;37.44
76195;BME280;64964;48.694;21.206;2023-09-07T09:57:43;98877.72;;;28.25;37.81
76195;BME280;64964;48.694;21.206;2023-09-07T10:00:09;98868.22;;;28.28;37.74
76195;BME280;64964;48.694;21.206;2023-09-07T10:02:50;98873.44;;;28.35;37.74
76195;BME280;64964;48.694;21.206;2023-09-07T10:05:17;98874.03;;;28.42;37.37
76195;BME280;64964;48.694;21.206;2023-09-07T10:07:44;98871.88;;;28.44;37.50
76195;BME280;64964;48.694;21.206;2023-09-07T10:10:13;98867.81;;;28.46;37.21
76195;BME280;64964;48.694;21.206;2023-09-07T10:12:58;98861.03;;;28.49;37.00
76195;BME280;64964;48.694;21.206;2023-09-07T10:15:25;98866.25;;;28.56;37.79
76195;BME280;64964;48.694;21.206;2023-09-07T10:18:01;98862.72;;;28.60;37.71
76195;BME280;64964;48.694;21.206;2023-09-07T10:20:27;98861.66;;;28.71;36.74
76195;BME280;64964;48.694;21.206;2023-09-07T10:23:02;98861.94;;;28.80;37.81
76195;BME280;64964;48.694;21.206;2023-09-07T10:25:30;98867.97;;;28.92;37.41
76195;BME280;64964;48.694;21.206;2023-09-07T10:27:56;98859.06;;;29.02;37.33
76195;BME280;64964;48.694;21.206;2023-09-07T10:30:22;98851.72;;;29.08;37.03
76195;BME280;64964;48.694;21.206;2023-09-07T10:32:49;98855.31;;;29.23;36.89
76195;BME280;64964;48.694;21.206;2023-09-07T10:35:15;98864.03;;;29.36;36.58
76195;BME280;64964;48.694;21.206;2023-09-07T10:37:44;98829.69;;;29.29;36.08
76195;BME280;64964;48.694;21.206;2023-09-07T10:40:10;98865.41;;;29.64;36.78
76195;BME280;64964;48.694;21.206;2023-09-07T10:42:37;98859.97;;;29.84;35.82
76195;BME280;64964;48.694;21.206;2023-09-07T10:45:10;98856.38;;;30.04;34.73
76195;BME280;64964;48.694;21.206;2023-09-07T10:47:40;98852.78;;;30.34;35.75
76195;BME280;64964;48.694;21.206;2023-09-07T10:50:06;98848.84;;;30.71;36.10
76195;BME280;64964;48.694;21.206;2023-09-07T10:52:33;98848.59;;;31.17;35.51
76195;BME280;64964;48.694;21.206;2023-09-07T10:54:59;98857.22;;;31.73;34.24
76195;BME280;64964;48.694;21.206;2023-09-07T10:57:24;98845.97;;;32.33;33.69
76195;BME280;64964;48.694;21.206;2023-09-07T10:59:49;98845.19;;;33.00;32.45
76195;BME280;64964;48.694;21.206;2023-09-07T11:02:15;98842.84;;;33.63;31.76
76195;BME280;64964;48.694;21.206;2023-09-07T11:04:41;98849.56;;;34.31;30.66
76195;BME280;64964;48.694;21.206;2023-09-07T11:07:07;98856.59;;;34.92;29.62
76195;BME280;64964;48.694;21.206;2023-09-07T11:09:33;98855.56;;;35.38;28.97
76195;BME280;64964;48.694;21.206;2023-09-07T11:12:04;98840.09;;;35.74;26.38
76195;BME280;64964;48.694;21.206;2023-09-07T11:14:30;98848.94;;;36.15;27.66
76195;BME280;64964;48.694;21.206;2023-09-07T11:16:56;98849.22;;;36.45;27.05
76195;BME280;64964;48.694;21.206;2023-09-07T11:19:22;98850.59;;;36.65;27.16
76195;BME280;64964;48.694;21.206;2023-09-07T11:21:47;98848.38;;;36.84;26.32
76195;BME280;64964;48.694;21.206;2023-09-07T11:24:13;98845.00;;;36.96;26.62
76195;BME280;64964;48.694;21.206;2023-09-07T11:26:45;98837.56;;;36.97;25.22
76195;BME280;64964;48.694;21.206;2023-09-07T11:29:15;98842.44;;;37.00;24.94
76195;BME280;64964;48.694;21.206;2023-09-07T11:31:41;98841.38;;;36.87;25.55
76195;BME280;64964;48.694;21.206;2023-09-07T11:34:12;98840.56;;;36.69;25.65
76195;BME280;64964;48.694;21.206;2023-09-07T11:36:38;98846.69;;;36.57;26.16
76195;BME280;64964;48.694;21.206;2023-09-07T11:39:04;98841.09;;;36.40;25.78
76195;BME280;64964;48.694;21.206;2023-09-07T11:41:40;98835.16;;;36.15;25.74
76195;BME280;64964;48.694;21.206;2023-09-07T11:44:06;98837.09;;;35.84;26.30
76195;BME280;64964;48.694;21.206;2023-09-07T11:46:31;98833.50;;;35.52;26.75
76195;BME280;64964;48.694;21.206;2023-09-07T11:48:57;98837.78;;;35.22;26.84
76195;BME280;64964;48.694;21.206;2023-09-07T11:51:22;98836.72;;;34.96;27.49
76195;BME280;64964;48.694;21.206;2023-09-07T11:53:47;98829.66;;;34.67;27.71
76195;BME280;64964;48.694;21.206;2023-09-07T11:56:14;98836.38;;;34.47;27.60
76195;BME280;64964;48.694;21.206;2023-09-07T11:58:39;98832.41;;;34.26;28.11
76195;BME280;64964;48.694;21.206;2023-09-07T12:01:04;98822.34;;;34.07;28.16
76195;BME280;64964;48.694;21.206;2023-09-07T12:03:31;98831.13;;;33.90;27.87
76195;BME280;64964;48.694;21.206;2023-09-07T12:05:58;98822.66;;;33.73;27.86
76195;BME280;64964;48.694;21.206;2023-09-07T12:08:23;98822.41;;;33.56;28.55
76195;BME280;64964;48.694;21.206;2023-09-07T12:10:49;98817.75;;;33.37;29.07
76195;BME280;64964;48.694;21.206;2023-09-07T12:13:14;98829.00;;;33.36;29.29
76195;BME280;64964;48.694;21.206;2023-09-07T12:15:39;98817.72;;;33.24;29.23
76195;BME280;64964;48.694;21.206;2023-09-07T12:18:05;98812.06;;;33.15;28.97
76195;BME280;64964;48.694;21.206;2023-09-07T12:20:30;98816.59;;;33.06;29.72
76195;BME280;64964;48.694;21.206;2023-09-07T12:22:56;98820.00;;;32.97;29.33
76195;BME280;64964;48.694;21.206;2023-09-07T12:25:21;98815.75;;;32.86;29.10
76195;BME280;64964;48.694;21.206;2023-09-07T12:27:46;98807.75;;;32.71;29.39
76195;BME280;64964;48.694;21.206;2023-09-07T12:30:12;98815.28;;;32.60;29.41
76195;BME280;64964;48.694;21.206;2023-09-07T12:32:39;98804.81;;;32.43;29.88
76195;BME280;64964;48.694;21.206;2023-09-07T12:35:05;98815.63;;;32.30;29.67
76195;BME280;64964;48.694;21.206;2023-09-07T12:37:36;98805.41;;;32.16;29.83
76195;BME280;64964;48.694;21.206;2023-09-07T12:40:03;98798.78;;;31.93;30.01
76195;BME280;64964;48.694;21.206;2023-09-07T12:42:37;98807.34;;;31.87;29.81
76195;BME280;64964;48.694;21.206;2023-09-07T12:45:02;98806.16;;;31.64;29.54